Time;durP1;ratioP1;P1;durP2;ratioP2;P2;SDS_P1;SDS_P2;PMS_P1;PMS_P2;Temp;Humidity;BMP_temperature;BMP_pressure;BME280_temperature;BME280_humidity;BME280_pressure;Samples;Min_cycle;Max_cycle;Signal;HPM_P1;HPM_P2
2023/11/22 07:14:39;;;;;;;11.87;4.40;;;5.90;99.90;;;;;;4597699;23;20235;-72
2023/11/22 07:17:06;;;;;;;11.63;4.87;;;6.00;99.90;;;;;;4954241;28;20211;-73
2023/11/22 07:19:34;;;;;;;13.30;4.47;;;6.00;99.90;;;;;;4954700;28;20212;-72
2023/11/22 07:22:04;;;;;;;11.53;4.37;;;6.00;99.90;;;;;;4952594;28;20266;-72
2023/11/22 07:24:34;;;;;;;14.00;5.40;;;5.90;99.90;;;;;;4954160;28;20227;-72
2023/11/22 07:27:02;;;;;;;12.13;4.77;;;5.90;99.90;;;;;;4953773;28;20689;-72
2023/11/22 07:29:29;;;;;;;13.70;5.43;;;5.90;99.90;;;;;;4953957;28;20227;-72
2023/11/22 07:31:57;;;;;;;10.00;4.60;;;5.90;99.90;;;;;;4952156;28;20582;-72
2023/11/22 07:34:24;;;;;;;11.23;4.83;;;5.80;99.90;;;;;;4954050;28;20306;-76
2023/11/22 07:36:51;;;;;;;12.13;4.93;;;5.60;99.90;;;;;;4953720;28;20212;-72
2023/11/22 07:39:19;;;;;;;13.03;4.77;;;5.70;99.90;;;;;;4954068;28;20659;-72
2023/11/22 07:41:48;;;;;;;10.93;4.23;;;5.90;99.90;;;;;;4952494;28;20236;-72
2023/11/22 07:44:16;;;;;;;10.93;4.20;;;6.10;99.90;;;;;;4948313;28;20213;-74
2023/11/22 07:46:44;;;;;;;12.67;4.23;;;6.30;99.90;;;;;;4954284;28;20240;-71
2023/11/22 07:49:13;;;;;;;10.43;3.83;;;6.30;99.90;;;;;;4953903;28;20204;-73
2023/11/22 07:51:41;;;;;;;10.47;3.93;;;6.40;99.90;;;;;;4953915;28;20635;-72
2023/11/22 07:54:08;;;;;;;11.33;4.33;;;6.50;99.90;;;;;;4954223;28;20214;-73
2023/11/22 07:56:35;;;;;;;10.27;4.40;;;6.70;99.90;;;;;;4954006;28;20212;-72
2023/11/22 07:59:02;;;;;;;11.53;3.90;;;6.70;99.90;;;;;;4953723;28;20223;-72
2023/11/22 08:01:31;;;;;;;9.97;4.20;;;6.70;99.90;;;;;;4953247;28;20666;-72
2023/11/22 08:03:58;;;;;;;12.13;4.07;;;6.70;99.90;;;;;;4953972;28;20204;-72
2023/11/22 08:06:26;;;;;;;10.37;4.07;;;6.70;99.90;;;;;;4954193;28;20572;-73
2023/11/22 08:08:53;;;;;;;10.73;4.33;;;6.40;99.90;;;;;;4954382;28;20215;-73
2023/11/22 08:11:20;;;;;;;8.77;3.60;;;6.50;99.90;;;;;;4954339;28;20564;-73
2023/11/22 08:13:47;;;;;;;8.23;3.50;;;6.30;99.90;;;;;;4962934;28;20265;-75
2023/11/22 08:16:14;;;;;;;11.03;4.17;;;6.30;99.90;;;;;;4960312;28;20215;-76
2023/11/22 08:18:42;;;;;;;11.13;4.30;;;6.40;99.90;;;;;;4948366;28;20318;-73
2023/11/22 08:21:09;;;;;;;12.57;4.50;;;6.60;99.90;;;;;;4957223;28;20337;-73
2023/11/22 08:23:38;;;;;;;11.63;4.40;;;6.70;99.90;;;;;;4957594;28;20291;-74
2023/11/22 08:26:06;;;;;;;9.73;3.97;;;6.90;99.90;;;;;;4957384;28;20212;-75
2023/11/22 08:28:34;;;;;;;9.00;3.90;;;7.20;99.90;;;;;;4957593;28;20212;-72
2023/11/22 08:31:01;;;;;;;11.27;3.90;;;6.80;99.90;;;;;;4956601;28;20247;-71
2023/11/22 08:33:29;;;;;;;11.70;4.20;;;6.70;99.90;;;;;;4946128;28;20219;-72
2023/11/22 08:35:59;;;;;;;10.43;4.33;;;6.80;99.90;;;;;;4957231;28;20204;-73
2023/11/22 08:38:26;;;;;;;12.60;4.23;;;6.80;99.90;;;;;;4957041;28;20200;-72
2023/11/22 08:40:56;;;;;;;12.47;4.90;;;6.80;99.90;;;;;;4957158;28;20627;-71
2023/11/22 08:43:25;;;;;;;11.77;4.43;;;6.90;99.90;;;;;;4957048;28;20239;-73
2023/11/22 08:45:52;;;;;;;10.37;4.57;;;7.10;99.90;;;;;;4956733;28;20226;-71
2023/11/22 08:48:19;;;;;;;9.53;3.77;;;7.10;99.90;;;;;;4957103;28;20235;-71
2023/11/22 08:50:48;;;;;;;10.50;4.37;;;7.40;99.90;;;;;;4953355;28;20259;-71
2023/11/22 08:53:15;;;;;;;7.43;3.67;;;7.50;99.90;;;;;;4955346;28;20215;-71
2023/11/22 08:55:43;;;;;;;12.30;4.70;;;7.40;99.90;;;;;;4956463;28;20231;-71
2023/11/22 08:58:11;;;;;;;10.07;4.33;;;7.40;99.90;;;;;;4956854;28;20714;-70
2023/11/22 09:00:38;;;;;;;8.93;3.63;;;7.40;99.90;;;;;;4956558;28;20593;-71
2023/11/22 09:03:05;;;;;;;9.53;4.20;;;7.40;99.90;;;;;;4956429;28;20214;-71
2023/11/22 09:05:31;;;;;;;10.33;4.47;;;7.30;99.90;;;;;;4956567;28;20577;-70
2023/11/22 09:07:59;;;;;;;9.43;3.50;;;7.10;99.90;;;;;;4956407;28;20210;-73
2023/11/22 09:10:26;;;;;;;8.20;3.33;;;7.00;99.90;;;;;;4956685;28;20212;-69
2023/11/22 09:12:53;;;;;;;11.47;3.80;;;7.10;99.90;;;;;;4956621;28;20294;-73
2023/11/22 09:15:26;;;;;;;8.93;3.80;;;7.30;99.90;;;;;;4956433;28;20220;-71
2023/11/22 09:17:54;;;;;;;8.17;3.73;;;7.40;99.90;;;;;;4956278;28;20291;-70
2023/11/22 09:20:21;;;;;;;8.67;4.00;;;7.40;99.90;;;;;;4956517;28;20287;-70
2023/11/22 09:22:50;;;;;;;9.40;3.80;;;7.50;99.90;;;;;;4955961;28;20666;-70
2023/11/22 09:25:19;;;;;;;9.37;4.43;;;7.50;99.90;;;;;;4945790;28;20299;-70
2023/11/22 09:27:47;;;;;;;11.80;4.37;;;7.70;99.90;;;;;;4943037;28;20295;-70
2023/11/22 09:30:19;;;;;;;10.60;4.40;;;7.80;99.90;;;;;;4956022;28;20267;-70
2023/11/22 09:32:47;;;;;;;8.93;3.63;;;7.70;99.90;;;;;;4955994;28;20232;-70
2023/11/22 09:35:15;;;;;;;8.30;3.77;;;7.70;99.90;;;;;;4955999;28;20208;-70
2023/11/22 09:37:43;;;;;;;9.33;3.73;;;7.70;99.90;;;;;;4955482;28;20299;-70
2023/11/22 09:40:12;;;;;;;9.70;4.53;;;7.60;99.90;;;;;;4955100;28;20738;-70
2023/11/22 09:42:39;;;;;;;10.27;4.30;;;7.50;99.90;;;;;;4954945;28;20236;-71
2023/11/22 09:45:07;;;;;;;8.40;3.77;;;7.70;99.90;;;;;;4954731;28;20215;-71
2023/11/22 09:47:35;;;;;;;7.83;3.20;;;7.80;99.90;;;;;;4956117;28;20291;-70
2023/11/22 09:50:05;;;;;;;9.27;4.20;;;7.90;99.90;;;;;;4956241;28;20207;-71
2023/11/22 09:52:35;;;;;;;9.27;4.30;;;7.90;99.90;;;;;;4956405;28;20232;-70
2023/11/22 09:55:03;;;;;;;9.00;4.83;;;8.10;99.90;;;;;;4956119;28;20208;-70
2023/11/22 09:57:33;;;;;;;10.33;4.63;;;8.30;99.90;;;;;;4956156;28;20671;-70
2023/11/22 10:00:02;;;;;;;10.53;4.33;;;8.20;99.90;;;;;;4955823;28;20685;-70
2023/11/22 10:02:28;;;;;;;8.90;3.77;;;7.90;99.90;;;;;;4956034;28;20244;-69
2023/11/22 10:04:56;;;;;;;9.77;4.20;;;7.80;99.90;;;;;;4955687;28;20230;-71
2023/11/22 10:07:25;;;;;;;9.00;3.83;;;7.80;99.90;;;;;;4956165;29;20262;-71
2023/11/22 10:09:52;;;;;;;10.03;4.50;;;8.00;99.90;;;;;;4955996;28;20208;-70
2023/11/22 10:12:21;;;;;;;10.20;3.63;;;8.00;99.90;;;;;;4955717;28;20259;-70
2023/11/22 10:14:48;;;;;;;9.33;4.13;;;8.00;99.90;;;;;;4955757;28;20216;-70
2023/11/22 10:17:16;;;;;;;7.30;3.13;;;8.00;99.90;;;;;;4955567;28;20211;-71
2023/11/22 10:19:43;;;;;;;7.93;3.77;;;8.10;99.90;;;;;;4955777;28;20212;-70
2023/11/22 10:22:15;;;;;;;8.33;3.50;;;7.90;99.90;;;;;;4955497;28;20683;-69
2023/11/22 10:24:46;;;;;;;7.40;2.80;;;8.00;99.90;;;;;;4955498;28;20766;-70
2023/11/22 10:27:13;;;;;;;7.53;3.30;;;8.10;99.90;;;;;;4955464;28;20607;-70
2023/11/22 10:29:40;;;;;;;6.97;4.00;;;7.90;99.90;;;;;;4955416;28;20212;-70
2023/11/22 10:32:08;;;;;;;7.63;2.97;;;8.00;99.90;;;;;;4955282;29;20318;-70
2023/11/22 10:34:36;;;;;;;6.17;2.97;;;8.00;99.90;;;;;;4955233;28;20567;-70
2023/11/22 10:37:04;;;;;;;8.00;3.83;;;8.00;99.90;;;;;;4954857;28;20667;-70
2023/11/22 10:39:31;;;;;;;9.47;4.47;;;8.10;99.90;;;;;;4955482;28;20208;-70
2023/11/22 10:42:00;;;;;;;8.23;3.40;;;8.10;99.90;;;;;;4955014;28;20331;-71
2023/11/22 10:44:27;;;;;;;9.47;3.90;;;8.00;99.90;;;;;;4955231;28;20204;-70
2023/11/22 10:46:55;;;;;;;8.47;3.47;;;7.90;99.90;;;;;;4954781;28;20211;-70
2023/11/22 10:49:22;;;;;;;8.43;3.83;;;8.00;99.90;;;;;;4955224;29;20298;-70
2023/11/22 10:51:53;;;;;;;10.40;3.47;;;8.20;99.90;;;;;;4955081;28;20231;-70
2023/11/22 10:54:24;;;;;;;8.70;4.10;;;8.40;99.90;;;;;;4955150;28;20252;-70
2023/11/22 10:56:56;;;;;;;8.50;3.77;;;8.60;99.90;;;;;;4955141;28;20212;-70
2023/11/22 10:59:27;;;;;;;9.53;4.87;;;8.60;99.90;;;;;;4955181;28;20570;-70
2023/11/22 11:01:58;;;;;;;9.13;3.87;;;8.60;99.90;;;;;;4954744;28;20314;-70
2023/11/22 11:04:30;;;;;;;11.33;4.33;;;8.50;99.90;;;;;;4954319;28;20210;-71
2023/11/22 11:06:58;;;;;;;9.77;4.30;;;8.60;99.90;;;;;;4954500;28;20210;-70
2023/11/22 11:09:32;;;;;;;9.30;4.40;;;8.50;99.90;;;;;;4954195;28;20208;-70
2023/11/22 11:11:59;;;;;;;7.93;3.67;;;8.70;99.90;;;;;;4954383;28;20232;-73
2023/11/22 11:14:28;;;;;;;8.17;4.00;;;8.70;99.90;;;;;;4954262;28;20302;-71
2023/11/22 11:16:58;;;;;;;6.77;2.90;;;8.80;99.90;;;;;;4954301;28;20303;-70
2023/11/22 11:19:25;;;;;;;8.30;3.00;;;8.70;99.90;;;;;;4954290;28;20675;-70
2023/11/22 11:21:52;;;;;;;7.17;3.20;;;8.80;99.90;;;;;;4954120;28;20335;-70
2023/11/22 11:24:19;;;;;;;10.43;3.97;;;8.90;99.90;;;;;;4954533;28;20212;-70
2023/11/22 11:26:52;;;;;;;7.83;3.63;;;8.90;99.90;;;;;;4954320;28;20220;-71
2023/11/22 11:29:33;;;;;;;7.17;3.27;;;8.90;99.90;;;;;;4954332;28;20208;-70
2023/11/22 11:32:01;;;;;;;7.37;3.20;;;9.00;99.90;;;;;;4954479;28;20266;-70
2023/11/22 11:34:29;;;;;;;7.27;3.43;;;9.10;99.90;;;;;;4954775;29;20243;-70
2023/11/22 11:36:57;;;;;;;7.03;3.00;;;9.10;99.90;;;;;;4955047;28;20434;-71
2023/11/22 11:39:29;;;;;;;9.90;4.00;;;9.00;99.90;;;;;;4954967;28;20204;-70
2023/11/22 11:42:09;;;;;;;6.53;2.93;;;9.00;99.90;;;;;;4954414;28;20318;-71
2023/11/22 11:44:38;;;;;;;7.50;3.47;;;9.10;99.90;;;;;;4954667;28;20262;-71
2023/11/22 11:47:10;;;;;;;7.17;3.07;;;9.20;99.90;;;;;;4956024;28;20204;-71
2023/11/22 11:49:38;;;;;;;6.93;3.60;;;9.40;99.90;;;;;;4958654;28;20223;-71
2023/11/22 11:52:06;;;;;;;7.07;3.60;;;9.30;99.90;;;;;;4958567;28;20266;-71
2023/11/22 11:54:32;;;;;;;8.73;4.10;;;9.40;99.90;;;;;;4958289;28;20298;-71
2023/11/22 11:57:00;;;;;;;6.80;3.10;;;9.60;99.90;;;;;;4958374;28;20214;-71
2023/11/22 11:59:27;;;;;;;7.53;3.70;;;9.90;99.90;;;;;;4958079;28;20579;-71
2023/11/22 12:01:57;;;;;;;6.80;3.70;;;10.10;99.90;;;;;;4958084;28;20298;-71
2023/11/22 12:04:24;;;;;;;7.17;3.07;;;10.20;99.90;;;;;;4958253;28;20235;-70
2023/11/22 12:06:52;;;;;;;7.40;4.23;;;10.40;99.90;;;;;;4958343;28;20211;-71
2023/11/22 12:09:25;;;;;;;7.30;3.77;;;10.60;99.90;;;;;;4958047;28;20208;-71
2023/11/22 12:11:54;;;;;;;7.03;3.23;;;10.70;99.90;;;;;;4957776;28;20239;-71
2023/11/22 12:14:21;;;;;;;6.40;2.97;;;10.90;99.90;;;;;;4958170;28;20259;-70
2023/11/22 12:16:48;;;;;;;7.00;3.47;;;10.40;99.90;;;;;;4957787;28;20307;-70
2023/11/22 12:19:24;;;;;;;7.63;3.40;;;10.50;99.90;;;;;;4957903;28;20216;-70
2023/11/22 12:21:51;;;;;;;7.07;3.63;;;10.40;99.90;;;;;;4957837;28;20318;-70
2023/11/22 12:24:19;;;;;;;7.70;3.17;;;10.20;99.90;;;;;;4957712;28;20299;-69
2023/11/22 12:26:48;;;;;;;7.50;3.70;;;10.10;99.90;;;;;;4958235;28;20211;-69
2023/11/22 12:29:15;;;;;;;5.73;2.90;;;9.80;99.90;;;;;;4957787;29;20212;-70
2023/11/22 12:31:47;;;;;;;6.40;3.03;;;9.80;99.90;;;;;;4957525;28;20308;-69
2023/11/22 12:34:14;;;;;;;6.37;3.10;;;9.80;99.90;;;;;;4957509;28;20208;-71
2023/11/22 12:36:43;;;;;;;7.27;3.27;;;9.90;99.90;;;;;;4957530;28;20663;-71
2023/11/22 12:39:16;;;;;;;5.87;3.27;;;10.00;99.90;;;;;;4957257;28;20627;-71
2023/11/22 12:41:45;;;;;;;6.23;3.10;;;10.00;99.90;;;;;;4957336;28;20620;-69
2023/11/22 12:44:12;;;;;;;5.93;2.73;;;9.90;99.90;;;;;;4957420;28;20211;-71
2023/11/22 12:46:55;;;;;;;7.33;3.23;;;9.90;99.90;;;;;;4957155;28;20290;-68
2023/11/22 12:49:22;;;;;;;5.67;3.23;;;9.90;99.90;;;;;;4957248;28;20208;-69
2023/11/22 12:51:54;;;;;;;6.37;2.87;;;9.90;99.90;;;;;;4957396;28;20319;-70
2023/11/22 12:54:22;;;;;;;7.63;3.13;;;10.10;99.90;;;;;;4957461;28;20299;-69
2023/11/22 12:56:50;;;;;;;6.93;2.97;;;9.70;99.90;;;;;;4957411;28;20247;-68
2023/11/22 12:59:17;;;;;;;6.50;3.23;;;9.70;99.90;;;;;;4956494;28;20239;-69
2023/11/22 13:01:45;;;;;;;7.63;3.33;;;9.70;99.90;;;;;;4956727;28;20711;-70
2023/11/22 13:04:14;;;;;;;5.67;3.03;;;9.70;99.90;;;;;;4957407;28;20216;-72
2023/11/22 13:06:41;;;;;;;9.03;3.67;;;9.60;99.90;;;;;;4957263;28;20208;-69
2023/11/22 13:09:14;;;;;;;6.07;3.00;;;9.50;99.90;;;;;;4957357;28;20217;-69
2023/11/22 13:11:42;;;;;;;5.83;2.50;;;9.40;99.90;;;;;;4962439;23;20232;-74
2023/11/22 13:14:09;;;;;;;6.77;2.80;;;9.20;99.90;;;;;;4937719;29;20212;-74
2023/11/22 13:16:38;;;;;;;5.77;3.23;;;9.00;99.90;;;;;;4937633;29;20213;-74
2023/11/22 13:19:05;;;;;;;5.80;2.80;;;8.90;99.90;;;;;;4937795;29;20213;-74
2023/11/22 13:21:32;;;;;;;5.93;3.07;;;8.90;99.90;;;;;;4937821;29;20319;-75
2023/11/22 13:23:59;;;;;;;5.50;2.87;;;9.00;99.90;;;;;;4937446;29;20707;-73
2023/11/22 13:26:28;;;;;;;6.67;3.43;;;8.80;99.90;;;;;;4937240;29;20215;-73
2023/11/22 13:28:55;;;;;;;6.37;3.10;;;8.60;99.90;;;;;;4937242;29;20271;-74
2023/11/22 13:31:22;;;;;;;8.07;2.93;;;8.60;99.90;;;;;;4937266;29;20336;-74
2023/11/22 13:33:50;;;;;;;6.20;2.53;;;8.70;99.90;;;;;;4937533;29;20247;-73
2023/11/22 13:36:17;;;;;;;6.70;3.10;;;8.60;99.90;;;;;;4937553;29;20216;-74
2023/11/22 13:38:44;;;;;;;7.43;3.20;;;8.60;99.90;;;;;;4937473;29;20272;-74
2023/11/22 13:41:11;;;;;;;6.07;2.90;;;8.60;99.90;;;;;;4937439;29;20225;-73
2023/11/22 13:43:39;;;;;;;7.70;3.33;;;8.70;99.90;;;;;;4937221;29;20244;-74
2023/11/22 13:46:09;;;;;;;8.57;3.40;;;8.90;99.90;;;;;;4937206;29;20272;-74
2023/11/22 13:48:36;;;;;;;6.87;3.33;;;9.00;99.90;;;;;;4937107;29;20247;-74
2023/11/22 13:51:04;;;;;;;9.20;3.57;;;9.10;99.90;;;;;;4937180;29;20229;-74
2023/11/22 13:53:34;;;;;;;5.97;3.13;;;9.20;99.90;;;;;;4936874;29;20219;-74
2023/11/22 13:56:04;;;;;;;8.87;3.60;;;9.30;99.90;;;;;;4936785;29;20583;-74
2023/11/22 13:58:32;;;;;;;7.10;3.10;;;9.30;99.90;;;;;;4936985;29;20208;-74
2023/11/22 14:01:01;;;;;;;8.37;3.87;;;9.00;99.90;;;;;;4936583;29;20232;-74
2023/11/22 14:03:28;;;;;;;8.47;3.77;;;9.10;99.90;;;;;;4936785;29;20335;-74
2023/11/22 14:05:57;;;;;;;8.23;4.13;;;8.90;99.90;;;;;;4936619;29;20688;-73
2023/11/22 14:08:25;;;;;;;6.77;3.20;;;8.80;99.90;;;;;;4936880;29;20276;-74
2023/11/22 14:10:52;;;;;;;8.53;3.80;;;8.70;99.90;;;;;;4935785;29;20315;-74
2023/11/22 14:13:20;;;;;;;18.33;3.53;;;8.70;99.90;;;;;;4936837;29;20213;-74
2023/11/22 14:15:47;;;;;;;7.20;3.43;;;8.60;99.90;;;;;;4936545;29;20213;-73
2023/11/22 14:18:17;;;;;;;8.00;3.53;;;8.60;99.90;;;;;;4936463;29;20209;-74
2023/11/22 14:20:43;;;;;;;8.93;4.03;;;8.60;99.90;;;;;;4936216;29;20559;-73
2023/11/22 14:23:10;;;;;;;6.80;3.50;;;8.60;99.90;;;;;;4936393;29;20244;-74
2023/11/22 14:25:37;;;;;;;7.50;3.77;;;8.60;99.90;;;;;;4936631;29;20209;-73
2023/11/22 14:28:04;;;;;;;7.33;3.53;;;8.60;99.90;;;;;;4936487;29;20209;-73
2023/11/22 14:30:35;;;;;;;7.83;3.93;;;8.70;99.90;;;;;;4935924;29;20633;-74
2023/11/22 14:33:06;;;;;;;5.83;3.00;;;8.80;99.90;;;;;;4936303;29;20209;-74
2023/11/22 14:35:35;;;;;;;5.67;3.00;;;9.00;99.90;;;;;;4936507;29;20231;-74
2023/11/22 14:38:03;;;;;;;6.53;2.90;;;9.00;99.90;;;;;;4936542;29;20625;-74
2023/11/22 14:40:31;;;;;;;8.27;3.60;;;9.00;99.90;;;;;;4936223;29;20217;-74
2023/11/22 14:42:58;;;;;;;6.03;3.10;;;8.90;99.90;;;;;;4935921;29;20707;-74
2023/11/22 14:45:26;;;;;;;7.60;3.57;;;8.90;99.90;;;;;;4936178;29;20683;-74
2023/11/22 14:47:53;;;;;;;8.37;3.47;;;8.80;99.90;;;;;;4936087;29;20300;-73
2023/11/22 14:50:21;;;;;;;7.17;3.20;;;8.70;99.90;;;;;;4936072;29;20301;-74
2023/11/22 14:52:50;;;;;;;6.20;3.10;;;8.70;99.90;;;;;;4935927;29;20238;-74
2023/11/22 14:55:18;;;;;;;7.17;3.10;;;8.60;99.90;;;;;;4936256;29;20215;-74
2023/11/22 14:57:45;;;;;;;6.90;2.83;;;8.60;99.90;;;;;;4936349;29;20213;-73
2023/11/22 15:00:14;;;;;;;5.67;2.47;;;8.50;99.90;;;;;;4935786;29;20299;-74
2023/11/22 15:02:42;;;;;;;7.80;3.33;;;8.60;99.90;;;;;;4935584;29;20299;-74
2023/11/22 15:05:10;;;;;;;6.93;3.23;;;8.60;99.90;;;;;;4935878;29;20212;-73
2023/11/22 15:07:37;;;;;;;9.63;3.37;;;8.60;99.90;;;;;;4936011;29;20213;-73
2023/11/22 15:10:07;;;;;;;7.57;3.23;;;8.50;99.90;;;;;;4936115;29;20236;-73
2023/11/22 15:12:35;;;;;;;6.93;3.13;;;8.40;99.90;;;;;;4935726;29;20603;-74
2023/11/22 15:15:02;;;;;;;7.67;3.33;;;8.40;99.90;;;;;;4935640;29;20213;-74
2023/11/22 15:17:29;;;;;;;8.30;3.10;;;8.50;99.90;;;;;;4935673;29;20205;-74
2023/11/22 15:19:56;;;;;;;7.63;3.17;;;8.40;99.90;;;;;;4935837;29;20209;-73
2023/11/22 15:22:22;;;;;;;7.90;3.07;;;8.30;99.90;;;;;;4937669;29;20233;-73
2023/11/22 15:24:49;;;;;;;7.40;3.40;;;8.30;99.90;;;;;;4939712;29;20204;-74
2023/11/22 15:27:18;;;;;;;8.30;3.27;;;8.40;99.90;;;;;;4939637;29;20315;-74
2023/11/22 15:29:45;;;;;;;5.93;2.93;;;8.40;99.90;;;;;;4939426;29;20299;-74
2023/11/22 15:32:13;;;;;;;6.27;2.67;;;8.30;99.90;;;;;;4939770;29;20235;-74
2023/11/22 15:34:40;;;;;;;10.20;3.50;;;8.20;99.90;;;;;;4939710;29;20571;-74
2023/11/22 15:37:10;;;;;;;10.87;4.07;;;8.30;99.90;;;;;;4939503;29;20259;-74
2023/11/22 15:39:37;;;;;;;9.47;3.67;;;8.20;99.90;;;;;;4939622;29;20720;-74
2023/11/22 15:42:05;;;;;;;8.43;3.90;;;8.20;99.90;;;;;;4939385;29;20232;-74
2023/11/22 15:44:34;;;;;;;13.93;5.03;;;8.10;99.90;;;;;;4939247;29;20236;-74
2023/11/22 15:47:04;;;;;;;12.43;5.10;;;8.30;99.90;;;;;;4939183;29;20213;-73
2023/11/22 15:49:32;;;;;;;9.87;4.50;;;8.40;99.90;;;;;;4939363;29;20291;-73
2023/11/22 15:51:59;;;;;;;11.13;4.10;;;8.30;99.90;;;;;;4939239;29;20267;-73
2023/11/22 15:54:26;;;;;;;7.27;3.80;;;8.20;99.90;;;;;;4939118;29;20267;-74
2023/11/22 15:56:53;;;;;;;9.27;3.93;;;8.20;99.90;;;;;;4938988;29;20212;-73
2023/11/22 15:59:20;;;;;;;12.13;4.10;;;8.20;99.90;;;;;;4939363;29;20205;-74
2023/11/22 16:01:49;;;;;;;6.60;3.77;;;8.30;99.90;;;;;;4939127;29;20233;-73
2023/11/22 16:04:16;;;;;;;8.83;3.67;;;8.20;99.90;;;;;;4939076;29;20240;-73
2023/11/22 16:06:43;;;;;;;10.87;4.43;;;8.20;99.90;;;;;;4938978;29;20217;-73
2023/11/22 16:09:12;;;;;;;9.77;4.27;;;8.20;99.90;;;;;;4938719;29;20240;-74
2023/11/22 16:11:39;;;;;;;9.70;3.97;;;8.30;99.90;;;;;;4938679;29;20292;-73
2023/11/22 16:14:06;;;;;;;8.77;3.83;;;8.30;99.90;;;;;;4938941;29;20711;-74
2023/11/22 16:16:33;;;;;;;8.73;3.63;;;8.20;99.90;;;;;;4938593;29;20299;-74
2023/11/22 16:19:02;;;;;;;10.30;4.43;;;8.20;99.90;;;;;;4938834;29;20208;-73
2023/11/22 16:21:28;;;;;;;8.93;4.17;;;8.20;99.90;;;;;;4938611;29;20628;-73
2023/11/22 16:23:55;;;;;;;9.93;4.30;;;8.30;99.90;;;;;;4938502;29;20291;-73
2023/11/22 16:26:23;;;;;;;10.83;4.77;;;8.30;99.90;;;;;;4938624;29;20560;-74
2023/11/22 16:28:50;;;;;;;9.50;4.07;;;8.30;99.90;;;;;;4939137;29;20212;-75
2023/11/22 16:31:19;;;;;;;10.50;4.77;;;8.30;99.90;;;;;;4938411;29;20755;-74
2023/11/22 16:33:46;;;;;;;8.33;4.03;;;8.20;99.90;;;;;;4937384;29;20205;-74
2023/11/22 16:36:15;;;;;;;7.80;3.43;;;8.20;99.90;;;;;;4938486;29;20211;-74
2023/11/22 16:38:42;;;;;;;7.57;3.20;;;8.10;99.90;;;;;;4938224;29;20256;-74
2023/11/22 16:41:09;;;;;;;10.57;4.80;;;8.10;99.90;;;;;;4938302;29;20715;-74
2023/11/22 16:43:37;;;;;;;7.90;3.53;;;8.00;99.90;;;;;;4938466;29;20244;-74
2023/11/22 16:46:04;;;;;;;11.33;3.83;;;7.90;99.90;;;;;;4938313;29;20215;-74
2023/11/22 16:48:31;;;;;;;8.37;3.63;;;7.80;99.90;;;;;;4938293;29;20213;-74
2023/11/22 16:50:58;;;;;;;11.50;4.77;;;7.90;99.90;;;;;;4938066;29;20233;-74
2023/11/22 16:53:26;;;;;;;12.67;4.70;;;7.90;99.90;;;;;;4938192;29;20223;-74
2023/11/22 16:55:53;;;;;;;14.47;4.73;;;7.90;99.90;;;;;;4938220;29;20205;-73
2023/11/22 16:58:21;;;;;;;14.53;4.83;;;7.90;99.90;;;;;;4938260;29;20261;-74
2023/11/22 17:00:48;;;;;;;9.40;4.27;;;7.90;99.90;;;;;;4937797;29;20710;-74
2023/11/22 17:03:15;;;;;;;10.47;4.87;;;7.80;99.90;;;;;;4937819;29;20232;-74
2023/11/22 17:05:44;;;;;;;12.37;4.53;;;7.90;99.90;;;;;;4938025;29;20209;-74
2023/11/22 17:08:10;;;;;;;9.43;4.83;;;7.80;99.90;;;;;;4938161;29;20307;-74
2023/11/22 17:10:39;;;;;;;9.53;4.37;;;7.80;99.90;;;;;;4937806;29;20236;-73
2023/11/22 17:13:06;;;;;;;10.67;4.40;;;7.80;99.90;;;;;;4937640;29;20264;-74
2023/11/22 17:15:33;;;;;;;10.30;4.97;;;7.80;99.90;;;;;;4937480;29;20213;-74
2023/11/22 17:18:01;;;;;;;11.17;4.70;;;7.70;99.90;;;;;;4937519;29;20223;-73
2023/11/22 17:20:27;;;;;;;9.00;4.07;;;7.80;99.90;;;;;;4938004;29;20209;-74
2023/11/22 17:22:54;;;;;;;13.13;5.57;;;7.90;99.90;;;;;;4937557;29;20232;-74
2023/11/22 17:25:21;;;;;;;13.67;5.20;;;7.90;99.90;;;;;;4937436;29;20248;-74
2023/11/22 17:27:50;;;;;;;14.43;5.90;;;7.90;99.90;;;;;;4937578;29;20715;-73
2023/11/22 17:30:17;;;;;;;13.73;5.47;;;7.90;99.90;;;;;;4937198;29;20668;-73
2023/11/22 17:32:43;;;;;;;11.67;5.00;;;7.80;99.90;;;;;;4937085;29;20265;-73
2023/11/22 17:35:12;;;;;;;11.73;4.77;;;7.80;99.90;;;;;;4937293;29;20216;-74
2023/11/22 17:37:39;;;;;;;11.00;5.03;;;7.80;99.90;;;;;;4937419;29;20691;-74
2023/11/22 17:40:07;;;;;;;9.80;4.70;;;7.70;99.90;;;;;;4937385;29;20295;-73
2023/11/22 17:42:34;;;;;;;13.40;4.87;;;7.70;99.90;;;;;;4937260;29;20233;-74
2023/11/22 17:45:03;;;;;;;11.13;4.50;;;7.70;99.90;;;;;;4937061;29;20331;-74
2023/11/22 17:47:32;;;;;;;15.27;5.87;;;7.70;99.90;;;;;;4937244;29;20216;-74
2023/11/22 17:49:59;;;;;;;14.80;6.50;;;7.70;99.90;;;;;;4937083;29;20295;-74
2023/11/22 17:52:26;;;;;;;17.13;4.83;;;7.70;99.90;;;;;;4937256;29;20315;-74
2023/11/22 17:54:53;;;;;;;12.90;5.57;;;7.60;99.90;;;;;;4937120;29;20579;-75
2023/11/22 17:57:21;;;;;;;10.77;4.93;;;7.70;99.90;;;;;;4936950;29;20597;-75
2023/11/22 17:59:48;;;;;;;10.73;3.90;;;7.80;99.90;;;;;;4936923;29;20296;-74
2023/11/22 18:02:17;;;;;;;12.40;4.73;;;7.70;99.90;;;;;;4936594;29;20280;-74
2023/11/22 18:04:44;;;;;;;12.00;4.23;;;7.70;99.90;;;;;;4936861;29;20247;-74
2023/11/22 18:07:11;;;;;;;12.57;4.60;;;7.70;99.90;;;;;;4937121;29;20296;-74
2023/11/22 18:09:38;;;;;;;11.33;4.10;;;7.80;99.90;;;;;;4936694;29;20233;-73
2023/11/22 18:12:05;;;;;;;13.43;4.70;;;7.90;99.90;;;;;;4936726;29;20299;-74
2023/11/22 18:14:35;;;;;;;10.13;4.63;;;7.80;99.90;;;;;;4936821;29;20660;-74
2023/11/22 18:17:02;;;;;;;10.47;5.20;;;7.80;99.90;;;;;;4936813;29;20213;-74
2023/11/22 18:19:30;;;;;;;16.73;5.67;;;7.80;99.90;;;;;;4936731;29;20680;-74
2023/11/22 18:21:58;;;;;;;10.73;5.37;;;7.70;99.90;;;;;;4936395;29;20603;-74
2023/11/22 18:24:27;;;;;;;13.83;5.40;;;7.70;99.90;;;;;;4936490;29;20237;-75
2023/11/22 18:26:54;;;;;;;10.57;4.93;;;7.70;99.90;;;;;;4930056;29;20232;-74
2023/11/22 18:29:23;;;;;;;10.90;4.20;;;7.60;99.90;;;;;;4927043;29;20657;-75
2023/11/22 18:31:51;;;;;;;11.77;4.87;;;7.60;99.90;;;;;;4926165;29;20779;-75
2023/11/22 18:34:18;;;;;;;12.17;4.20;;;7.60;99.90;;;;;;4934866;29;20264;-75
2023/11/22 18:36:47;;;;;;;15.70;5.20;;;7.60;99.90;;;;;;4937659;28;20597;-75
2023/11/22 18:39:14;;;;;;;14.93;5.00;;;7.70;99.90;;;;;;4930691;29;20213;-75
2023/11/22 18:41:40;;;;;;;17.33;4.80;;;7.70;99.90;;;;;;4933260;29;20236;-75
2023/11/22 18:44:08;;;;;;;15.27;5.23;;;7.70;99.90;;;;;;4934932;29;20319;-74
2023/11/22 18:46:36;;;;;;;14.97;5.63;;;7.60;99.90;;;;;;4934738;29;20612;-74
2023/11/22 18:49:03;;;;;;;12.30;4.73;;;7.60;99.90;;;;;;4922953;29;20624;-74
2023/11/22 18:51:30;;;;;;;12.00;5.47;;;7.60;99.90;;;;;;4935309;29;20228;-74
2023/11/22 18:53:58;;;;;;;15.87;6.00;;;7.50;99.90;;;;;;4935562;29;20217;-75
2023/11/22 18:56:25;;;;;;;14.77;6.10;;;7.50;99.90;;;;;;4935016;29;20206;-74
2023/11/22 18:58:52;;;;;;;17.67;6.90;;;7.40;99.90;;;;;;4935627;29;20672;-74
2023/11/22 19:01:20;;;;;;;17.93;5.83;;;7.40;99.90;;;;;;4934595;29;20628;-74
2023/11/22 19:03:47;;;;;;;14.77;5.63;;;7.30;99.90;;;;;;4934928;29;20628;-75
2023/11/22 19:06:14;;;;;;;13.30;5.33;;;7.30;99.90;;;;;;4934666;29;20211;-75
2023/11/22 19:08:43;;;;;;;14.70;5.50;;;7.30;99.90;;;;;;4928064;29;20216;-75
2023/11/22 19:11:11;;;;;;;15.40;5.83;;;7.30;99.90;;;;;;4935708;29;20232;-74
2023/11/22 19:13:38;;;;;;;17.13;5.77;;;7.40;99.90;;;;;;4935315;29;20217;-75
2023/11/22 19:16:06;;;;;;;13.10;5.87;;;7.30;99.90;;;;;;4935041;29;20247;-75
2023/11/22 19:18:33;;;;;;;14.83;5.73;;;7.30;99.90;;;;;;4935105;29;20232;-76
2023/11/22 19:21:03;;;;;;;13.63;6.07;;;7.30;99.90;;;;;;4931997;29;20644;-75
2023/11/22 19:23:30;;;;;;;14.07;5.33;;;7.30;99.90;;;;;;4931391;29;20217;-76
2023/11/22 19:25:59;;;;;;;13.87;5.47;;;7.40;99.90;;;;;;4935303;29;20233;-76
2023/11/22 19:28:27;;;;;;;16.17;5.33;;;7.40;99.90;;;;;;4935180;29;20209;-76
2023/11/22 19:30:54;;;;;;;14.33;4.93;;;7.50;99.90;;;;;;4934851;29;20699;-75
2023/11/22 19:33:21;;;;;;;15.23;6.17;;;7.50;99.90;;;;;;4934850;29;20208;-75
2023/11/22 19:35:49;;;;;;;10.03;4.63;;;7.50;99.90;;;;;;4935339;29;20268;-75
2023/11/22 19:38:16;;;;;;;14.23;5.43;;;7.40;99.90;;;;;;4935344;29;20204;-75
2023/11/22 19:40:44;;;;;;;17.07;5.43;;;7.40;99.90;;;;;;4935207;29;20692;-75
2023/11/22 19:43:11;;;;;;;11.03;5.67;;;7.40;99.90;;;;;;4928374;29;20209;-75
2023/11/22 19:45:41;;;;;;;13.13;5.13;;;7.40;99.90;;;;;;4927989;29;20240;-75
2023/11/22 19:48:08;;;;;;;15.70;5.60;;;7.40;99.90;;;;;;4934602;29;20209;-74
2023/11/22 19:50:35;;;;;;;13.43;5.63;;;7.30;99.90;;;;;;4934397;29;20209;-74
2023/11/22 19:53:03;;;;;;;11.90;4.60;;;7.30;99.90;;;;;;4934066;29;20252;-75
2023/11/22 19:55:30;;;;;;;13.73;5.27;;;7.20;99.90;;;;;;4934741;29;20239;-76
2023/11/22 19:57:59;;;;;;;14.23;4.30;;;7.20;99.90;;;;;;4934677;29;20613;-75
2023/11/22 20:00:25;;;;;;;12.13;4.17;;;7.20;99.90;;;;;;4931945;29;20296;-75
2023/11/22 20:02:54;;;;;;;13.73;4.90;;;7.20;99.90;;;;;;4925030;29;20225;-75
2023/11/22 20:05:21;;;;;;;12.80;4.90;;;7.10;99.90;;;;;;4934644;29;20240;-75
2023/11/22 20:07:47;;;;;;;11.53;5.17;;;7.10;99.90;;;;;;4923722;29;20216;-74
2023/11/22 20:10:14;;;;;;;9.77;4.27;;;7.10;99.90;;;;;;4937896;29;20209;-75